• Join FlightAware (Why Join?)
  • Login
  • US Flag 
12:01AM EST


 

Airport Tracker/Info


-or-


 

Live Flight TrackerFlight Track Log ✈ AVN11 ✈ 21-Jun-2014 ✈ YSSY / SYD - NVVV / VLI

Flight Track Log - Related Links

Times and Time Zones

All times are in EDT time to prevent confusion due to time zone crossing. See the AVN11 flight status page for this flight to view local times or setup timezone preferences in your user account.

Time Position Orientation Groundspeed Altitude Reporting Facility
EDT Latitude Longitude Course Direction KTS MPH feet Rate Location/Type
05:45AM -33.9685 151.1817 167° South 167 192 200  Level FlightAware ADS-B (YRAY)
05:46AM -33.9736 151.1823 179° South 168 193 600 2,340 Climbing FlightAware ADS-B
05:46AM -33.9870 151.1811 187° South 163 188 1,100 1,980 Climbing FlightAware ADS-B (YRAY)
05:46AM -33.9950 151.1799 187° South 173 199 1,400 1,980 Climbing FlightAware ADS-B (YPLB)
05:46AM -34.0041 151.1785 187° South 183 211 1,700 1,380 Climbing FlightAware ADS-B (YPLB)
05:46AM -34.0139 151.1771 186° South 193 222 1,900 840 Climbing FlightAware ADS-B (YPLB)
05:47AM -34.0250 151.1768 179° South 203 234 2,100 1,020 Climbing FlightAware ADS-B
05:47AM -34.0323 151.1777 173° South 211 243 2,300 1,980 Climbing FlightAware ADS-B (YWST)
05:47AM -34.0401 151.1802 160° South 208 239 2,600 2,280 Climbing FlightAware ADS-B (YRAY)
05:47AM -34.0438 151.1825 149° Southeast 216 249 2,800 2,100 Climbing FlightAware ADS-B
05:47AM -34.0489 151.1875 132° Southeast 220 253 3,100 1,500 Climbing FlightAware ADS-B
05:47AM -34.0560 151.2027 110° East 235 270 3,300 1,500 Climbing FlightAware ADS-B
05:47AM -34.0577 151.2106 104° East 242 278 3,500 1,500 Climbing FlightAware ADS-B (YPLB)
05:48AM -34.0604 151.2249 102° East 259 298 3,800 1,200 Climbing FlightAware ADS-B
05:48AM -34.0591 151.2181 102° East 250 288 3,900 900 Climbing FlightAware ADS-B (YPLB)
05:48AM -34.0659 151.2598 101° East 288 331 4,100 960 Climbing FlightAware ADS-B
05:48AM -34.0681 151.2743 99° East 301 346 4,300 1,020 Climbing FlightAware ADS-B (YRAY)
05:49AM -34.0770 151.3294 101° East 336 387 4,800 1,020 Climbing FlightAware ADS-B
05:49AM -34.0794 151.3449 100° East 344 396 4,900 1,860 Climbing FlightAware ADS-B (YPLB)
05:49AM -34.0826 151.3654 101° East 348 400 5,400 2,160 Climbing FlightAware ADS-B
05:49AM -34.0886 151.4048 98° East 353 406 6,200 2,100 Climbing FlightAware ADS-B
05:49AM -34.0887 151.4230 85° East 357 411 6,500 2,100 Climbing FlightAware ADS-B
05:50AM -34.0842 151.4447 70° East 361 415 6,900 2,400 Climbing FlightAware ADS-B
05:50AM -34.0794 151.4566 57° Northeast 363 418 7,300 2,400 Climbing FlightAware ADS-B (YRAY)
05:50AM -34.0715 151.4694 50° Northeast 364 419 7,500 2,100 Climbing FlightAware ADS-B (YWST)
05:50AM -34.0531 151.4875 34° Northeast 363 418 8,000 2,160 Climbing FlightAware ADS-B (YRAY)
05:50AM -34.0303 151.5054 33° Northeast 366 421 8,600 2,400 Climbing FlightAware ADS-B (YSSY / SYD)
05:51AM -33.9941 151.5340 34° Northeast 369 425 9,600 2,580 Climbing FlightAware ADS-B
05:51AM -33.9829 151.5430 33° Northeast 369 425 9,900 2,760 Climbing FlightAware ADS-B (YPLB)
05:51AM -33.9677 151.5552 33° Northeast 371 427 10,300 2,100 Climbing FlightAware ADS-B (YPLB)
05:51AM -33.9303 151.5853 34° Northeast 376 433 11,300 1,980 Climbing FlightAware ADS-B (YSSY / SYD)
05:52AM -33.8896 151.6185 34° Northeast 384 442 12,300 2,040 Climbing FlightAware ADS-B (YSSY / SYD)
05:52AM -33.8525 151.6517 42° Northeast 394 453 13,000 2,040 Climbing FlightAware ADS-B (YPLB)
05:53AM -33.8206 151.6957 51° Northeast 402 463 14,000 1,920 Climbing FlightAware ADS-B (YSSY / SYD)
05:53AM -33.7730 151.7666 51° Northeast 418 481 15,300 2,100 Climbing FlightAware ADS-B (YSSY / SYD)
05:54AM -33.7446 151.8088 50° Northeast 423 487 16,100 2,400 Climbing FlightAware ADS-B (YPLB)
05:54AM -33.6994 151.8753 51° Northeast 423 487 17,700 2,460 Climbing FlightAware ADS-B (YSSY / SYD)
05:55AM -33.6703 151.9184 51° Northeast 422 486 19,000 2,160 Climbing FlightAware ADS-B (YSSY / SYD)
05:56AM -33.6129 152.0033 51° Northeast 428 493 20,300 1,740 Climbing FlightAware ADS-B (YSSY / SYD)
05:56AM -33.5658 152.0726 51° Northeast 439 505 21,300 1,500 Climbing FlightAware ADS-B (YSSY / SYD)
05:57AM -33.5161 152.1458 51° Northeast 448 516 22,200 1,560 Climbing FlightAware ADS-B (YRPA)
05:57AM -33.5066 152.1596 50° Northeast 450 518 22,400 1,680 Climbing FlightAware ADS-B (YPLB)
05:57AM -33.4934 152.1790 50° Northeast 451 519 22,600 1,380 Climbing FlightAware ADS-B (YPLB)
05:57AM -33.4664 152.2184 50° Northeast 456 525 23,100 1,260 Climbing FlightAware ADS-B (YPLB)
05:58AM -33.4468 152.2471 51° Northeast 460 529 23,400 1,200 Climbing FlightAware ADS-B (YSSY / SYD)
05:58AM -33.4275 152.2753 50° Northeast 462 532 23,700 1,620 Climbing FlightAware ADS-B (YPLB)
05:58AM -33.3893 152.3319 50° Northeast 464 534 24,600 1,320 Climbing Aus ATC (RADAR)
05:59AM -33.3825 152.3411 51° Northeast 468 539 24,500 900 Descending FlightAware ADS-B
05:59AM -33.3568 152.3785 50° Northeast 471 542 24,900 1,560 Climbing FlightAware ADS-B (YPLB)
05:59AM -33.3621 152.3708 51° Northeast 473 544 25,000 1,200 Climbing FlightAware ADS-B
05:59AM -33.3029 152.4570 50° Northeast 478 550 25,700 1,140 Climbing FlightAware ADS-B (YPLB)
06:00AM -33.2591 152.5207 50° Northeast 481 554 26,300 1,200 Climbing FlightAware ADS-B (YPLB)
06:01AM -33.2136 152.5869 50° Northeast 482 555 27,000 1,380 Climbing FlightAware ADS-B (YPLB)
06:01AM -33.1687 152.6519 51° Northeast 480 552 27,900 1,440 Climbing FlightAware ADS-B (YRPA)
06:02AM -33.1165 152.7276 50° Northeast 480 552 28,700 1,200 Climbing FlightAware ADS-B (YPLB)
06:02AM -33.0736 152.7893 50° Northeast 485 558 29,200 1,140 Climbing FlightAware ADS-B (YPLB)
06:03AM -33.0260 152.8582 50° Northeast 475 547 30,000 1,020 Climbing Aus ATC (RADAR)
06:03AM -33.0160 152.8721 50° Northeast 488 562 29,900 900 Descending FlightAware ADS-B (YPLB)
06:03AM -32.9724 152.9346 50° Northeast 490 564 30,500 1,260 Climbing FlightAware ADS-B (YPLB)
06:04AM -32.9282 152.9971 50° Northeast 489 563 31,300 1,320 Climbing Aus ATC (RADAR)
06:04AM -32.9162 153.0152 50° Northeast 485 558 31,400 1,140 Climbing FlightAware ADS-B (YPLB)
06:04AM -32.8739 153.0758 50° Northeast 483 556 32,000 1,080 Climbing FlightAware ADS-B (YPLB)
06:05AM -32.8285 153.1408 50° Northeast 484 557 32,500 840 Climbing FlightAware ADS-B (YPLB)
06:06AM -32.7725 153.2205 50° Northeast 489 563 33,000 660 Climbing FlightAware ADS-B (YPLB)
06:06AM -32.7211 153.2936 50° Northeast 493 567 33,400 840 Climbing FlightAware ADS-B (YRPA)
06:07AM -32.6724 153.3627 50° Northeast 492 566 34,000 1,080 Climbing FlightAware ADS-B (YPLB)
06:07AM -32.6286 153.4247 50° Northeast 489 563 34,500 960 Climbing FlightAware ADS-B (YPLB)
06:08AM -32.5831 153.4892 50° Northeast 487 560 35,000 420 Climbing FlightAware ADS-B (YPLB)
06:08AM -32.5253 153.5710 50° Northeast 489 563 35,000  Level FlightAware ADS-B (YPLB)
06:09AM -32.4810 153.6339 50° Northeast 490 564 35,000  Level FlightAware ADS-B (YPLB)
06:10AM -32.4244 153.7144 50° Northeast 489 563 35,000  Level FlightAware ADS-B (YPLB)
06:10AM -32.3789 153.7787 50° Northeast 489 563 35,000  Level FlightAware ADS-B (YPLB)
06:11AM -32.3355 153.8395 49° Northeast 488 562 35,000  Level FlightAware ADS-B (YPLB)
06:11AM -32.2904 153.9025 49° Northeast 489 563 35,000  Level FlightAware ADS-B (YPLB)
06:12AM -32.2374 153.9762 49° Northeast 487 560 35,000  Level FlightAware ADS-B (YPLB)
06:12AM -32.1891 154.0434 49° Northeast 488 562 35,000  Level FlightAware ADS-B (YPLB)
06:13AM -32.1321 154.1228 49° Northeast 489 563 35,000  Level FlightAware ADS-B (YPLB)
06:14AM -32.0740 154.2037 49° Northeast 487 560 35,000  Level FlightAware ADS-B (YPLB)
06:14AM -32.0301 154.2643 49° Northeast 486 559 35,000  Level FlightAware ADS-B (YPLB)
06:15AM -31.9805 154.3330 49° Northeast 485 558 35,000 120 Level FlightAware ADS-B (YPLB)
06:16AM -31.9141 154.4247 49° Northeast 486 559 35,200  Climbing Aus ATC (RADAR)
06:16AM -31.8933 154.4533 49° Northeast 484 557 35,000 -240 Descending FlightAware ADS-B (YPLB)
06:16AM -31.8371 154.5305 49° Northeast 484 557 35,000  Level FlightAware ADS-B (YPLB)
06:17AM -31.7936 154.5905 49° Northeast 480 552 35,000  Level FlightAware ADS-B (YPLB)
06:18AM -31.7351 154.6709 49° Northeast 483 556 35,000  Level FlightAware ADS-B (YPLB)
06:18AM -31.6980 154.7216 49° Northeast 487 560 35,000 120 Level FlightAware ADS-B (YPLB)
06:19AM -31.6311 154.8132 49° Northeast 485 558 35,200  Climbing Aus ATC (RADAR)
06:19AM -31.5917 154.8671 49° Northeast 487 560 35,000  Descending FlightAware ADS-B (YPLB)
06:20AM -31.5285 154.9530 49° Northeast 485 558 35,200  Climbing Aus ATC (RADAR)
06:20AM -31.5233 154.9600 49° Northeast 487 560 35,000  Descending FlightAware ADS-B (YPLB)
06:21AM -31.4770 155.0231 49° Northeast 487 560 35,200 120 Climbing Aus ATC (RADAR)
06:21AM -31.4259 155.0924 49° Northeast 484 557 35,200  Level Aus ATC (RADAR)
06:22AM -31.3751 155.1614 49° Northeast 480 552 35,200  Level Aus ATC (RADAR)
06:22AM -31.3095 155.2503 49° Northeast 479 551 35,200  Level Aus ATC (RADAR)
06:23AM -31.2586 155.3189 49° Northeast 479 551 35,200  Level Aus ATC (RADAR)
06:24AM -31.2142 155.3793 49° Northeast 486 559 35,200  Level Aus ATC (RADAR)
06:24AM -31.1534 155.4624 49° Northeast 498 573 35,200  Level Aus ATC (RADAR)
06:25AM -31.0951 155.5397 49° Northeast 489 563 35,200  Level Aus ATC (RADAR)
06:25AM -31.0436 155.6085 49° Northeast 484 557 35,200  Level Aus ATC (RADAR)
06:26AM -30.9918 155.6778 49° Northeast 486 559 35,200  Level Aus ATC (RADAR)
06:27AM -30.9401 155.7464 49° Northeast 484 557 35,200  Level Aus ATC (RADAR)
06:27AM -30.8814 155.8242 49° Northeast 482 555 35,200  Level Aus ATC (RADAR)
06:28AM -30.8295 155.8931 49° Northeast 483 556 35,200  Level Aus ATC (RADAR)
06:28AM -30.7854 155.9512 49° Northeast 482 555 35,200  Level Aus ATC (RADAR)
06:29AM -30.7266 156.0291 49° Northeast 481 554 35,200  Level Aus ATC (RADAR)
06:30AM -30.6753 156.0967 49° Northeast 479 551 35,200  Level Aus ATC (RADAR)
06:30AM -30.6083 156.1851 49° Northeast 482 555 35,200  Level Aus ATC (RADAR)
06:31AM -30.5639 156.2435 49° Northeast 483 556 35,200  Level Aus ATC (RADAR)
06:31AM -30.5132 156.3107 49° Northeast 479 551 35,200  Level Aus ATC (RADAR)
06:32AM -30.4607 156.3795 48° Northeast 483 556 35,200  Level Aus ATC (RADAR)
06:33AM -30.4076 156.4487 48° Northeast 486 559 35,200  Level Aus ATC (RADAR)
06:33AM -30.3550 156.5175 48° Northeast 488 562 35,200  Level Aus ATC (RADAR)
06:34AM -30.3101 156.5759 48° Northeast 487 560 35,200  Level Aus ATC (RADAR)
06:34AM -30.2658 156.6338 48° Northeast 484 557 35,200  Level Aus ATC (RADAR)
06:35AM -30.2136 156.7017 48° Northeast 483 556 35,200  Level Aus ATC (RADAR)
06:35AM -30.1601 156.7706 48° Northeast 487 560 35,200  Level Aus ATC (RADAR)
06:36AM -30.1235 156.8187 49° Northeast 484 557 35,200  Level Aus ATC (RADAR)
06:36AM -30.0715 156.8858 48° Northeast 481 554 35,200  Level Aus ATC (RADAR)
06:37AM -30.0124 156.9627 48° Northeast 479 551 35,200  Level Aus ATC (RADAR)
06:38AM -29.9669 157.0210 48° Northeast 483 556 35,200  Level Aus ATC (RADAR)
06:38AM -29.9145 157.0883 48° Northeast 482 555 35,200  Level Aus ATC (RADAR)
06:39AM -29.8547 157.1647 48° Northeast 481 554 35,200  Level Aus ATC (RADAR)
06:39AM -29.8098 157.2224 48° Northeast 481 554 35,200  Level Aus ATC (RADAR)
06:40AM -29.7573 157.2894 48° Northeast 481 554 35,200  Level Aus ATC (RADAR)
06:41AM -29.6986 157.3651 48° Northeast 476 548 35,200  Level Aus ATC (RADAR)
06:41AM -29.6461 157.4314 48° Northeast 478 550 35,200  Level Aus ATC (RADAR)
06:42AM -29.5950 157.4971 48° Northeast 475 547 35,200  Level Aus ATC (RADAR)
06:42AM -29.5430 157.5633 48° Northeast 475 547 35,200  Level Aus ATC (RADAR)
06:43AM -29.4916 157.6290 48° Northeast 473 544 35,200  Level Aus ATC (RADAR)
06:43AM -29.4405 157.6947 48° Northeast 472 543 35,200  Level Aus ATC (RADAR)
06:44AM -29.3878 157.7613 48° Northeast 477 549 35,200  Level Aus ATC (RADAR)
06:45AM -29.3353 157.8279 48° Northeast 479 551 35,200  Level Aus ATC (RADAR)
06:45AM -29.2696 157.9129 49° Northeast 475 547 35,200  Level Aus ATC (RADAR)
06:46AM -29.2331 157.9605 49° Northeast 475 547 35,200  Level Aus ATC (RADAR)
06:46AM -29.1790 158.0275 47° Northeast 480 552 35,200  Level Aus ATC (RADAR)
06:47AM -29.1252 158.0943 47° Northeast 483 556 35,200  Level Aus ATC (RADAR)
06:47AM -29.0704 158.1615 47° Northeast 486 559 35,200  Level Aus ATC (RADAR)
06:48AM -29.0464 158.1897 46° Northeast 488 562 35,200  Level Aus ATC (RADAR)
06:51AM -28.7007 158.6212 47° Northeast 35,000 -60 Descending Aus ATC (Calculated)
06:53AM -28.5880 158.7609 47° Northeast  Level FlightAware Approximate
06:53AM -28.5336 158.8282 47° Northeast 35,000  Level Aus ATC (Calculated)
06:55AM -28.3839 159.0127 47° Northeast  Level FlightAware Approximate
06:56AM -28.2990 159.1169 47° Northeast  Level FlightAware Approximate
06:56AM -28.2058 159.2306 226° Southwest 37,000  Level Aus ATC (Calculated)
06:57AM -28.2141 159.2209 47° Northeast  Level FlightAware Approximate
06:58AM -28.1682 159.2769 47° Northeast  Level FlightAware Approximate
06:58AM -28.0073 159.4725 227° Southwest 37,000  Level Aus ATC (Calculated)
06:59AM -28.0831 159.3806 47° Northeast  Level FlightAware Approximate
07:00AM -27.9206 159.5776 47° Northeast  Level FlightAware Approximate
07:00AM -27.9140 159.5856 47° Northeast 37,000  Level Aus ATC (Calculated)
07:01AM -27.8287 159.6888 47° Northeast  Level FlightAware Approximate
07:01AM -27.7331 159.8041 227° Southwest 37,000  Level Aus ATC (Calculated)
07:02AM -27.7433 159.7918 47° Northeast  Level FlightAware Approximate
07:03AM -27.6306 159.9276 47° Northeast  Level FlightAware Approximate
07:04AM -27.5450 160.0302 47° Northeast  Level FlightAware Approximate
07:04AM -27.4782 160.1102 47° Northeast 37,000  Level Aus ATC (Calculated)
07:06AM -27.3682 160.2416 47° Northeast  Level FlightAware Approximate
07:07AM -27.2824 160.3438 47° Northeast  Level FlightAware Approximate
07:07AM -27.2078 160.4324 47° Northeast 37,000  Level Aus ATC (Calculated)
07:08AM -27.1965 160.4459 47° Northeast  Level FlightAware Approximate
07:09AM -27.0975 160.5632 47° Northeast  Level FlightAware Approximate
07:09AM -27.0700 160.5958 46° Northeast 37,000  Level Aus ATC (Calculated)
07:11AM -26.9107 160.7837 46° Northeast  Level FlightAware Approximate
07:11AM -26.8758 160.8248 46° Northeast 37,000  Level Aus ATC (Calculated)
07:13AM -26.7162 161.0121 46° Northeast  Level FlightAware Approximate
07:13AM -26.6995 161.0317 46° Northeast 37,000  Level Aus ATC (Calculated)
07:14AM -26.5928 161.1564 46° Northeast 37,000  Level Aus ATC (Calculated)
07:15AM -26.5063 161.2572 46° Northeast  Level FlightAware Approximate
07:16AM -26.4198 161.3579 46° Northeast  Level FlightAware Approximate
07:16AM -26.3925 161.3896 46° Northeast 37,000  Level Aus ATC (Calculated)
07:17AM -26.3059 161.4901 46° Northeast  Level FlightAware Approximate
07:18AM -26.2192 161.5904 46° Northeast  Level FlightAware Approximate
07:19AM -26.1324 161.6905 46° Northeast  Level FlightAware Approximate
07:20AM -26.0456 161.7905 46° Northeast  Level FlightAware Approximate
07:21AM -25.9587 161.8904 46° Northeast  Level FlightAware Approximate
07:22AM -25.8717 161.9901 46° Northeast  Level FlightAware Approximate
07:23AM -25.7847 162.0896 46° Northeast  Level FlightAware Approximate
07:24AM -25.6976 162.1891 46° Northeast  Level FlightAware Approximate
07:25AM -25.6105 162.2883 46° Northeast  Level FlightAware Approximate
07:26AM -25.5232 162.3874 46° Northeast  Level FlightAware Approximate
07:26AM -25.4675 162.4507 46° Northeast 37,000  Level Aus ATC (Calculated)
07:27AM -25.3801 162.5496 46° Northeast  Level FlightAware Approximate
07:28AM -25.2927 162.6483 46° Northeast  Level FlightAware Approximate
07:29AM -25.2052 162.7469 46° Northeast  Level FlightAware Approximate
07:30AM -25.1177 162.8454 46° Northeast  Level FlightAware Approximate
07:31AM -25.0301 162.9437 45° Northeast  Level FlightAware Approximate
07:32AM -24.9424 163.0418 45° Northeast  Level FlightAware Approximate
07:33AM -24.8546 163.1398 45° Northeast  Level FlightAware Approximate
07:34AM -24.7667 163.2376 45° Northeast  Level FlightAware Approximate
07:35AM -24.6788 163.3353 45° Northeast  Level FlightAware Approximate
07:36AM -24.5908 163.4328 45° Northeast  Level FlightAware Approximate
07:37AM -24.5027 163.5302 45° Northeast  Level FlightAware Approximate
07:38AM -24.4146 163.6275 45° Northeast  Level FlightAware Approximate
07:39AM -24.3264 163.7246 45° Northeast  Level FlightAware Approximate
07:40AM -24.2381 163.8216 45° Northeast  Level FlightAware Approximate
07:41AM -24.1498 163.9185 45° Northeast  Level FlightAware Approximate
07:42AM -24.0615 164.0152 45° Northeast  Level FlightAware Approximate
07:43AM -23.9730 164.1118 45° Northeast  Level FlightAware Approximate
07:44AM -23.8845 164.2083 45° Northeast  Level FlightAware Approximate
07:45AM -23.7960 164.3046 45° Northeast  Level FlightAware Approximate
07:46AM -23.7074 164.4008 45° Northeast  Level FlightAware Approximate
07:47AM -23.6187 164.4969 45° Northeast  Level FlightAware Approximate
07:48AM -23.5300 164.5928 45° Northeast  Level FlightAware Approximate
07:49AM -23.4412 164.6886 45° Northeast  Level FlightAware Approximate
07:50AM -23.3523 164.7843 45° Northeast  Level FlightAware Approximate
07:51AM -23.2634 164.8798 45° Northeast  Level FlightAware Approximate
07:52AM -23.1744 164.9752 45° Northeast  Level FlightAware Approximate
07:53AM -23.0854 165.0705 45° Northeast  Level FlightAware Approximate
07:54AM -22.9963 165.1656 45° Northeast  Level FlightAware Approximate
07:55AM -22.9071 165.2606 44° Northeast  Level FlightAware Approximate
07:56AM -22.8179 165.3555 44° Northeast  Level FlightAware Approximate
07:57AM -22.7286 165.4503 44° Northeast  Level FlightAware Approximate
07:58AM -22.6393 165.5450 44° Northeast  Level FlightAware Approximate
07:59AM -22.5499 165.6395 44° Northeast  Level FlightAware Approximate
08:00AM -22.4605 165.7339 44° Northeast  Level FlightAware Approximate
08:01AM -22.3710 165.8282 44° Northeast  Level FlightAware Approximate
08:02AM -22.2814 165.9223 44° Northeast  Level FlightAware Approximate
08:03AM -22.1918 166.0164 44° Northeast  Level FlightAware Approximate
08:04AM -22.1022 166.1103 44° Northeast  Level FlightAware Approximate
08:05AM -22.0125 166.2041 44° Northeast  Level FlightAware Approximate
08:06AM -21.9004 166.2621 24° Northeast  Level FlightAware Approximate
08:07AM -21.7862 166.3168 24° Northeast  Level FlightAware Approximate
08:08AM -21.6721 166.3714 24° Northeast  Level FlightAware Approximate
08:09AM -21.5579 166.4259 24° Northeast  Level FlightAware Approximate
08:10AM -21.4437 166.4804 24° Northeast  Level FlightAware Approximate
08:11AM -21.3295 166.5347 24° Northeast  Level FlightAware Approximate
08:12AM -21.2153 166.5890 24° Northeast  Level FlightAware Approximate
08:13AM -21.1010 166.6432 24° Northeast  Level FlightAware Approximate
08:14AM -20.9868 166.6973 24° Northeast  Level FlightAware Approximate
08:15AM -20.8725 166.7513 24° Northeast  Level FlightAware Approximate
08:16AM -20.7582 166.8053 24° Northeast  Level FlightAware Approximate
08:17AM -20.6439 166.8591 24° Northeast  Level FlightAware Approximate
08:18AM -20.5296 166.9129 24° Northeast  Level FlightAware Approximate
08:19AM -20.4152 166.9666 24° Northeast  Level FlightAware Approximate
08:20AM -20.3009 167.0202 24° Northeast  Level FlightAware Approximate
08:21AM -20.1865 167.0738 24° Northeast  Level FlightAware Approximate
08:22AM -20.0721 167.1272 24° Northeast  Level FlightAware Approximate
08:23AM -19.9577 167.1806 24° Northeast  Level FlightAware Approximate
08:24AM -19.8433 167.2339 24° Northeast  Level FlightAware Approximate
08:25AM -19.7288 167.2872 24° Northeast  Level FlightAware Approximate
08:26AM -19.6144 167.3403 24° Northeast  Level FlightAware Approximate
08:27AM -19.4999 167.3934 24° Northeast  Level FlightAware Approximate
08:28AM -19.3856 167.4468 24° Northeast  Level FlightAware Approximate
08:29AM -19.2712 167.5000 24° Northeast  Level FlightAware Approximate
08:30AM -19.1569 167.5533 24° Northeast  Level FlightAware Approximate
08:31AM -19.0425 167.6064 24° Northeast  Level FlightAware Approximate
08:32AM -18.9281 167.6595 24° Northeast  Level FlightAware Approximate
08:33AM -18.8137 167.7125 24° Northeast  Level FlightAware Approximate
08:34AM -18.6992 167.7654 24° Northeast  Level FlightAware Approximate
08:35AM -18.5848 167.8183 24° Northeast  Level FlightAware Approximate
08:36AM -18.4704 167.8712 24° Northeast  Level FlightAware Approximate
08:37AM -18.3560 167.9242 24° Northeast  Level FlightAware Approximate
08:38AM -18.2417 167.9771 24° Northeast  Level FlightAware Approximate
08:39AM -18.1273 168.0299 24° Northeast  Level FlightAware Approximate
08:40AM -18.0128 168.0827 24° Northeast  Level FlightAware Approximate
08:41AM -17.8984 168.1354 24° Northeast  Level FlightAware Approximate
08:42AM -17.7840 168.1880 24° Northeast  Level FlightAware Approximate
08:43AM -17.6695 168.2405 24° Northeast  Level FlightAware Approximate
08:44AM -17.6621 168.2439 24° Northeast  Level FlightAware Approximate
08:45AM -17.6993 168.3198 117° Southeast  Level Estimated
08:46AM -17.6993 168.3198 24° Northeast  Level Estimated
08:47AM -17.6993 168.3198 North  Level Estimated
08:48AM -17.6993 168.3198 24° Northeast  Level Estimated
08:49AM -17.6993 168.3198 North  Level Estimated
08:50AM -17.6993 168.3198 24° Northeast  Level Estimated
08:51AM -17.6993 168.3198 North  Level Estimated
08:52AM -17.6993 168.3198 24° Northeast  Level Estimated
08:53AM -17.6993 168.3198 North  Level Estimated
08:54AM -17.6993 168.3198 24° Northeast  Level Estimated
08:55AM -17.6993 168.3198 North  Level Estimated
08:56AM -17.6993 168.3198 24° Northeast  Level Estimated
08:57AM -17.6993 168.3198 North  Level Estimated
08:58AM -17.6993 168.3198 24° Northeast  Level Estimated
08:59AM -17.6993 168.3198 North  Level Estimated